createdAt,value
2019-01-10T00:02:00.536Z,100.00
2019-01-10T00:04:31.839Z,100.00
2019-01-10T00:07:02.035Z,100.00
2019-01-10T00:09:31.369Z,100.00
2019-01-10T00:12:00.738Z,100.00
2019-01-10T00:14:30.104Z,100.00
2019-01-10T00:16:59.429Z,100.00
2019-01-10T00:19:28.783Z,100.00
2019-01-10T00:21:58.216Z,100.00
2019-01-10T00:24:28.482Z,100.00
2019-01-10T00:26:59.726Z,100.00
2019-01-10T00:29:29.114Z,100.00
2019-01-10T00:31:58.531Z,100.00
2019-01-10T00:34:27.895Z,99.98
2019-01-10T00:36:57.230Z,99.69
2019-01-10T00:39:26.905Z,99.57
2019-01-10T00:41:56.221Z,99.41
2019-01-10T00:44:25.973Z,99.50
2019-01-10T00:46:55.585Z,99.60
2019-01-10T00:49:24.904Z,99.61
2019-01-10T00:51:54.253Z,99.50
2019-01-10T00:54:26.170Z,99.34
2019-01-10T00:56:56.949Z,99.26
2019-01-10T00:59:26.338Z,99.24
2019-01-10T01:02:01.984Z,99.05
2019-01-10T01:04:31.326Z,98.68
2019-01-10T01:07:00.724Z,98.52
2019-01-10T01:09:30.064Z,98.75
2019-01-10T01:11:59.387Z,98.71
2019-01-10T01:14:28.733Z,98.62
2019-01-10T01:16:58.394Z,98.61
2019-01-10T01:19:27.691Z,98.19
2019-01-10T01:21:57.331Z,97.92
2019-01-10T01:24:26.688Z,97.63
2019-01-10T01:26:56.224Z,97.28
2019-01-10T01:29:25.555Z,97.01
2019-01-10T01:31:57.665Z,97.04
2019-01-10T01:34:27.010Z,97.25
2019-01-10T01:36:56.402Z,97.22
2019-01-10T01:39:26.799Z,97.09
2019-01-10T01:41:56.117Z,96.86
2019-01-10T01:44:26.436Z,96.67
2019-01-10T01:46:56.079Z,96.36
2019-01-10T01:49:25.808Z,96.36
2019-01-10T01:51:55.166Z,96.10
2019-01-10T01:54:24.962Z,95.95
2019-01-10T01:56:54.333Z,95.67
2019-01-10T01:59:24.048Z,95.43
2019-01-10T02:01:53.405Z,95.12
2019-01-10T02:04:25.188Z,94.93
2019-01-10T02:06:54.562Z,94.70
2019-01-10T02:09:23.920Z,94.68
2019-01-10T02:11:53.315Z,95.05
2019-01-10T02:14:24.770Z,95.33
2019-01-10T02:16:54.114Z,95.35
2019-01-10T02:19:23.523Z,95.17
2019-01-10T02:21:52.874Z,94.96
2019-01-10T02:24:22.218Z,95.28
2019-01-10T02:26:51.804Z,95.67
2019-01-10T02:29:21.140Z,95.77
2019-01-10T02:31:50.545Z,95.83
2019-01-10T02:34:20.001Z,95.88
2019-01-10T02:36:49.337Z,95.69
2019-01-10T02:39:18.670Z,95.42
2019-01-10T02:41:47.986Z,95.37
2019-01-10T02:44:17.311Z,95.20
2019-01-10T02:46:46.672Z,95.06
2019-01-10T02:49:16.010Z,94.91
2019-01-10T02:51:45.363Z,95.04
2019-01-10T02:54:14.732Z,95.39
2019-01-10T02:56:44.049Z,95.62
2019-01-10T02:59:13.429Z,95.92
2019-01-10T03:01:42.849Z,96.24
2019-01-10T03:04:12.541Z,96.24
2019-01-10T03:06:42.249Z,95.96
2019-01-10T03:09:11.679Z,95.73
2019-01-10T03:11:41.050Z,95.48
2019-01-10T03:14:10.405Z,95.59
2019-01-10T03:16:39.707Z,95.62
2019-01-10T03:19:09.044Z,95.49
2019-01-10T03:21:38.401Z,95.52
2019-01-10T03:24:07.888Z,95.83
2019-01-10T03:26:37.250Z,95.97
2019-01-10T03:29:06.615Z,95.80
2019-01-10T03:31:35.956Z,95.80
2019-01-10T03:34:05.666Z,96.14
2019-01-10T03:36:35.005Z,96.30
2019-01-10T03:39:07.922Z,96.54
2019-01-10T03:41:37.296Z,96.64
2019-01-10T03:44:06.744Z,96.23
2019-01-10T03:46:36.460Z,96.25
2019-01-10T03:49:05.823Z,96.15
2019-01-10T03:51:35.159Z,96.03
2019-01-10T03:54:04.527Z,95.97
2019-01-10T03:56:33.896Z,95.94
2019-01-10T03:59:03.229Z,96.18
2019-01-10T04:01:32.597Z,96.43
2019-01-10T04:04:02.001Z,96.32
2019-01-10T04:06:31.354Z,96.17
2019-01-10T04:09:00.698Z,96.26
2019-01-10T04:11:30.141Z,96.38
2019-01-10T04:13:59.450Z,96.79
2019-01-10T04:16:28.814Z,97.13
2019-01-10T04:18:58.234Z,97.11
2019-01-10T04:21:27.588Z,97.40
2019-01-10T04:23:57.289Z,97.98
2019-01-10T04:26:26.668Z,98.31
2019-01-10T04:28:56.034Z,98.52
2019-01-10T04:31:25.384Z,98.57
2019-01-10T04:33:54.770Z,98.70
2019-01-10T04:36:24.490Z,98.68
2019-01-10T04:38:53.811Z,98.48
2019-01-10T04:41:23.146Z,98.43
2019-01-10T04:43:52.502Z,98.40
2019-01-10T04:46:21.964Z,98.35
2019-01-10T04:48:51.337Z,98.58
2019-01-10T04:51:20.682Z,98.76
2019-01-10T04:53:50.118Z,98.77
2019-01-10T04:56:19.462Z,98.73
2019-01-10T04:58:48.993Z,98.65
2019-01-10T05:01:18.357Z,98.53
2019-01-10T05:03:47.651Z,98.53
2019-01-10T05:06:16.988Z,98.70
2019-01-10T05:08:46.322Z,98.74
2019-01-10T05:11:15.650Z,98.76
2019-01-10T05:13:45.579Z,98.88
2019-01-10T05:16:14.895Z,98.84
2019-01-10T05:18:44.262Z,98.83
2019-01-10T05:21:13.613Z,98.87
2019-01-10T05:23:42.992Z,98.78
2019-01-10T05:26:12.416Z,98.55
2019-01-10T05:28:41.813Z,98.56
2019-01-10T05:31:11.185Z,98.54
2019-01-10T05:33:40.623Z,98.60
2019-01-10T05:36:10.064Z,98.50
2019-01-10T05:38:39.448Z,98.30
2019-01-10T05:41:08.938Z,98.67
2019-01-10T05:43:38.317Z,98.82
2019-01-10T05:46:07.691Z,98.90
2019-01-10T05:48:37.089Z,98.82
2019-01-10T05:51:06.486Z,98.82
2019-01-10T05:53:35.874Z,98.88
2019-01-10T05:56:15.011Z,98.96
2019-01-10T05:58:36.920Z,98.93
2019-01-10T06:01:07.047Z,98.94
2019-01-10T06:03:36.453Z,98.82
2019-01-10T06:06:05.871Z,98.74
2019-01-10T06:08:35.247Z,98.79
2019-01-10T06:11:04.612Z,98.69
2019-01-10T06:13:34.044Z,98.80
2019-01-10T06:16:03.441Z,98.89
2019-01-10T06:18:32.831Z,98.90
2019-01-10T06:21:02.202Z,98.80
2019-01-10T06:23:31.658Z,99.04
2019-01-10T06:26:01.519Z,98.86
2019-01-10T06:28:30.919Z,98.57
2019-01-10T06:31:00.306Z,98.34
2019-01-10T06:33:29.672Z,98.24
2019-01-10T06:35:59.139Z,98.23
2019-01-10T06:38:28.573Z,98.08
2019-01-10T06:40:57.952Z,97.87
2019-01-10T06:43:27.318Z,97.88
2019-01-10T06:45:56.712Z,97.81
2019-01-10T06:48:26.085Z,97.90
2019-01-10T06:50:55.454Z,97.83
2019-01-10T06:53:24.828Z,97.60
2019-01-10T06:55:54.246Z,97.58
2019-01-10T06:58:23.623Z,97.76
2019-01-10T07:00:53.005Z,97.75
2019-01-10T07:03:22.376Z,97.69
2019-01-10T07:05:51.843Z,97.73
2019-01-10T07:08:21.191Z,97.80
2019-01-10T07:10:50.548Z,97.62
2019-01-10T07:13:19.939Z,97.58
2019-01-10T07:15:49.260Z,97.77
2019-01-10T07:18:18.692Z,97.75
2019-01-10T07:20:48.074Z,97.93
2019-01-10T07:23:17.405Z,98.09
2019-01-10T07:25:46.812Z,98.22
2019-01-10T07:28:26.020Z,98.22
2019-01-10T07:30:59.795Z,98.28
2019-01-10T07:33:29.226Z,98.40
2019-01-10T07:35:59.507Z,98.54
2019-01-10T07:38:29.070Z,98.49
2019-01-10T07:40:58.451Z,98.36
2019-01-10T07:43:28.571Z,98.21
2019-01-10T07:45:59.414Z,98.01
2019-01-10T07:48:29.251Z,98.17
2019-01-10T07:50:58.616Z,98.17
2019-01-10T07:53:27.925Z,97.86
2019-01-10T07:55:57.261Z,97.35
2019-01-10T07:58:26.740Z,97.01
2019-01-10T08:00:56.120Z,96.92
2019-01-10T08:03:27.058Z,97.01
2019-01-10T08:05:56.469Z,96.87
2019-01-10T08:08:25.816Z,96.87
2019-01-10T08:10:55.215Z,96.64
2019-01-10T08:13:24.535Z,96.75
2019-01-10T08:15:54.462Z,96.83
2019-01-10T08:18:23.826Z,97.04
2019-01-10T08:20:53.273Z,97.15
2019-01-10T08:23:25.661Z,97.06
2019-01-10T08:25:55.002Z,96.77
2019-01-10T08:28:24.382Z,96.09
2019-01-10T08:30:54.194Z,95.85
2019-01-10T08:33:23.594Z,95.67
2019-01-10T08:35:52.957Z,95.69
2019-01-10T08:38:22.351Z,95.34
2019-01-10T09:56:49.135Z,100.00
2019-01-10T09:59:30.567Z,100.00
2019-01-10T11:31:20.012Z,100.00
2019-01-10T11:37:04.719Z,100.00
2019-01-10T11:43:42.647Z,100.00
2019-01-10T11:53:03.012Z,100.00
2019-01-10T11:59:00.571Z,100.00
2019-01-10T12:01:37.027Z,100.00
2019-01-10T12:04:10.054Z,100.00
2019-01-10T12:07:03.351Z,100.00
2019-01-10T12:09:35.996Z,100.00
2019-01-10T12:12:05.524Z,100.00
2019-01-10T12:14:35.996Z,100.00
2019-01-10T12:17:05.454Z,100.00
2019-01-10T12:19:34.870Z,100.00
2019-01-10T12:22:04.691Z,100.00
2019-01-10T12:24:35.376Z,100.00
2019-01-10T12:27:05.118Z,100.00
2019-01-10T12:29:36.315Z,100.00
2019-01-10T12:32:05.639Z,100.00
2019-01-10T12:34:35.031Z,100.00
2019-01-10T12:37:04.372Z,100.00
2019-01-10T12:39:33.742Z,100.00
2019-01-10T12:42:03.152Z,100.00
2019-01-10T12:44:32.495Z,100.00
2019-01-10T12:47:02.206Z,100.00
2019-01-10T12:49:31.526Z,100.00
2019-01-10T12:52:00.880Z,100.00
2019-01-10T12:54:30.663Z,100.00
2019-01-10T12:57:00.072Z,100.00
2019-01-10T12:59:29.713Z,100.00
2019-01-10T13:01:59.061Z,100.00
2019-01-10T13:04:28.429Z,100.00
2019-01-10T13:06:57.752Z,100.00
2019-01-10T13:09:27.170Z,100.00
2019-01-10T13:11:56.824Z,100.00
2019-01-10T13:14:28.945Z,100.00
2019-01-10T13:16:58.375Z,100.00
2019-01-10T13:19:27.710Z,100.00
2019-01-10T13:21:57.109Z,100.00
2019-01-10T13:24:26.468Z,100.00
2019-01-10T13:26:55.863Z,100.00
2019-01-10T13:29:25.217Z,100.00
2019-01-10T13:31:54.640Z,100.00
2019-01-10T13:34:24.085Z,100.00
2019-01-10T13:36:54.537Z,100.00
2019-01-10T13:39:23.889Z,100.00
2019-01-10T13:41:53.321Z,100.00
2019-01-10T13:44:22.654Z,100.00
2019-01-10T13:46:55.730Z,100.00
2019-01-10T13:49:23.162Z,100.00
2019-01-10T13:51:54.164Z,100.00
2019-01-10T13:54:23.556Z,100.00
2019-01-10T13:56:52.961Z,100.00
2019-01-10T13:59:22.323Z,100.00
2019-01-10T14:01:51.615Z,100.00
2019-01-10T14:04:20.944Z,100.00
2019-01-10T14:06:50.298Z,100.00
2019-01-10T14:09:19.666Z,100.00
2019-01-10T14:11:49.063Z,100.00
2019-01-10T14:14:18.482Z,100.00
2019-01-10T14:16:48.181Z,100.00
2019-01-10T14:19:17.966Z,100.00
2019-01-10T14:21:47.351Z,100.00
2019-01-10T14:24:17.066Z,100.00
2019-01-10T14:26:46.594Z,100.00
2019-01-10T14:29:21.893Z,100.00
2019-01-10T14:32:04.176Z,100.00
2019-01-10T14:34:44.260Z,100.00
2019-01-10T14:37:14.527Z,100.00
2019-01-10T14:39:45.230Z,100.00
2019-01-10T14:42:18.063Z,100.00
2019-01-10T14:44:50.110Z,100.00
2019-01-10T14:47:21.888Z,100.00
2019-01-10T14:49:51.361Z,100.00
2019-01-10T14:52:21.066Z,100.00
2019-01-10T14:54:50.448Z,100.00
2019-01-10T14:57:19.798Z,100.00
2019-01-10T14:59:50.062Z,100.00
2019-01-10T15:02:19.365Z,100.00
2019-01-10T15:04:48.789Z,100.00
2019-01-10T15:07:18.157Z,100.00
2019-01-10T15:09:48.933Z,100.00
2019-01-10T15:12:18.330Z,100.00
2019-01-10T15:14:47.671Z,100.00
2019-01-10T15:17:17.110Z,100.00
2019-01-10T15:19:46.438Z,100.00
2019-01-10T15:22:15.803Z,100.00
2019-01-10T15:24:46.741Z,100.00
2019-01-10T15:27:16.042Z,100.00
2019-01-10T15:29:45.359Z,100.00
2019-01-10T15:32:14.685Z,100.00
2019-01-10T15:34:44.053Z,100.00
2019-01-10T15:37:13.412Z,100.00
2019-01-10T15:39:42.751Z,100.00
2019-01-10T15:42:12.135Z,100.00
2019-01-10T15:44:41.568Z,100.00
2019-01-10T15:47:10.948Z,100.00
2019-01-10T15:49:40.315Z,100.00
2019-01-10T15:52:09.677Z,100.00
2019-01-10T15:54:39.272Z,100.00
2019-01-10T15:57:08.607Z,100.00
2019-01-10T15:59:37.962Z,100.00
2019-01-10T16:02:07.386Z,100.00
2019-01-10T16:04:36.859Z,100.00
2019-01-10T16:07:07.847Z,100.00
2019-01-10T16:09:38.093Z,100.00
2019-01-10T16:12:07.583Z,100.00
2019-01-10T16:14:36.956Z,100.00
2019-01-10T16:17:06.334Z,100.00
2019-01-10T16:19:35.719Z,100.00
2019-01-10T16:22:05.234Z,100.00
2019-01-10T16:24:35.174Z,100.00
2019-01-10T16:27:04.643Z,100.00
2019-01-10T16:29:33.979Z,100.00
2019-01-10T16:32:03.331Z,100.00
2019-01-10T16:34:32.738Z,100.00
2019-01-10T16:37:02.129Z,100.00
2019-01-10T16:39:31.481Z,100.00
2019-01-10T16:42:00.859Z,100.00
2019-01-10T16:44:32.944Z,100.00
2019-01-10T16:47:02.724Z,100.00
2019-01-10T16:49:32.202Z,100.00
2019-01-10T16:52:01.560Z,100.00
2019-01-10T16:54:31.228Z,100.00
2019-01-10T16:57:00.560Z,100.00
2019-01-10T16:59:29.943Z,100.00
2019-01-10T17:01:59.302Z,100.00
2019-01-10T17:04:28.697Z,100.00
2019-01-10T17:06:58.601Z,100.00
2019-01-10T17:09:28.013Z,100.00
2019-01-10T17:11:57.381Z,100.00
2019-01-10T17:14:26.755Z,100.00
2019-01-10T17:16:56.111Z,100.00
2019-01-10T17:19:25.485Z,100.00
2019-01-10T17:21:54.823Z,100.00
2019-01-10T17:24:24.198Z,100.00
2019-01-10T17:26:53.587Z,100.00
2019-01-10T17:29:22.941Z,100.00
2019-01-10T17:31:52.256Z,100.00
2019-01-10T17:34:23.030Z,100.00
2019-01-10T17:36:52.488Z,100.00
2019-01-10T17:39:21.860Z,100.00
2019-01-10T17:41:51.649Z,100.00
2019-01-10T17:44:20.965Z,100.00
2019-01-10T17:46:50.303Z,100.00
2019-01-10T17:49:20.070Z,100.00
2019-01-10T17:51:49.379Z,100.00
2019-01-10T17:54:18.749Z,100.00
2019-01-10T17:56:48.088Z,100.00
2019-01-10T17:59:17.522Z,100.00
2019-01-10T18:01:46.849Z,100.00
2019-01-10T18:04:16.216Z,100.00
2019-01-10T18:06:46.270Z,100.00
2019-01-10T18:09:15.671Z,100.00
2019-01-10T18:11:49.233Z,100.00
2019-01-10T18:14:18.599Z,100.00
2019-01-10T18:16:47.965Z,100.00
2019-01-10T18:19:17.344Z,100.00
2019-01-10T18:21:46.643Z,100.00
2019-01-10T18:24:15.963Z,100.00
2019-01-10T18:26:48.385Z,100.00
2019-01-10T18:29:18.079Z,100.00
2019-01-10T18:31:47.735Z,100.00
2019-01-10T18:34:17.040Z,100.00
2019-01-10T18:36:46.389Z,100.00
2019-01-10T18:39:16.213Z,100.00
2019-01-10T18:42:06.874Z,100.00
2019-01-10T18:44:48.408Z,100.00
2019-01-10T18:47:25.367Z,100.00
2019-01-10T18:50:50.196Z,100.00
2019-01-10T18:53:44.571Z,100.00
2019-01-10T18:56:13.929Z,100.00
2019-01-10T18:58:43.267Z,100.00
2019-01-10T19:01:12.678Z,100.00
2019-01-10T19:03:42.064Z,100.00
2019-01-10T19:06:11.449Z,100.00
2019-01-10T19:08:43.803Z,100.00
2019-01-10T19:11:13.520Z,100.00
2019-01-10T19:13:42.904Z,100.00
2019-01-10T19:16:14.084Z,100.00
2019-01-10T19:18:43.471Z,100.00
2019-01-10T19:21:13.383Z,100.00
2019-01-10T19:23:42.746Z,100.00
2019-01-10T19:26:12.150Z,100.00
2019-01-10T19:28:41.546Z,100.00
2019-01-10T19:31:11.000Z,100.00
2019-01-10T19:33:41.323Z,100.00
2019-01-10T19:36:11.118Z,100.00
2019-01-10T19:38:40.464Z,100.00
2019-01-10T19:41:09.815Z,100.00
2019-01-10T19:43:40.377Z,100.00
2019-01-10T19:46:11.718Z,100.00
2019-01-10T19:48:41.100Z,100.00
2019-01-10T19:51:10.488Z,100.00
2019-01-10T19:53:39.874Z,100.00
2019-01-10T19:56:09.215Z,100.00
2019-01-10T19:58:39.575Z,100.00
2019-01-10T20:01:08.980Z,100.00
2019-01-10T20:03:41.572Z,100.00
2019-01-10T20:06:11.018Z,100.00
2019-01-10T20:08:40.366Z,100.00
2019-01-10T20:11:10.113Z,100.00
2019-01-10T20:13:39.515Z,100.00
2019-01-10T20:16:11.484Z,100.00
2019-01-10T20:18:40.815Z,100.00
2019-01-10T20:21:10.644Z,100.00
2019-01-10T20:23:40.401Z,100.00
2019-01-10T20:26:09.932Z,100.00
2019-01-10T20:28:39.248Z,100.00
2019-01-10T20:31:08.926Z,100.00
2019-01-10T20:33:38.395Z,100.00
2019-01-10T20:36:07.789Z,100.00
2019-01-10T20:38:37.130Z,100.00
2019-01-10T20:41:06.440Z,100.00
2019-01-10T20:43:38.080Z,100.00
2019-01-10T20:46:08.137Z,100.00
2019-01-10T20:48:37.771Z,100.00
2019-01-10T20:51:07.435Z,100.00
2019-01-10T20:53:36.781Z,100.00
2019-01-10T20:56:06.273Z,100.00
2019-01-10T20:58:36.097Z,100.00
2019-01-10T21:01:05.453Z,100.00
2019-01-10T21:03:34.936Z,100.00
2019-01-10T21:06:04.429Z,100.00
2019-01-10T21:08:34.818Z,100.00
2019-01-10T21:11:04.168Z,100.00
2019-01-10T21:13:33.595Z,100.00
2019-01-10T21:16:02.987Z,100.00
2019-01-10T21:18:32.375Z,100.00
2019-01-10T21:21:01.682Z,100.00
2019-01-10T21:23:31.006Z,100.00
2019-01-10T21:26:00.357Z,100.00
2019-01-10T21:28:30.297Z,100.00
2019-01-10T21:31:02.105Z,100.00
2019-01-10T21:33:31.410Z,100.00
2019-01-10T21:36:00.910Z,100.00
2019-01-10T21:38:30.671Z,100.00
2019-01-10T21:41:00.132Z,100.00
2019-01-10T21:43:29.462Z,100.00
2019-01-10T21:45:59.049Z,100.00
2019-01-10T21:48:34.870Z,100.00
2019-01-10T21:51:00.754Z,100.00
2019-01-10T21:53:30.086Z,100.00
2019-01-10T21:55:59.394Z,100.00
2019-01-10T21:58:28.974Z,100.00
2019-01-10T22:00:58.310Z,100.00
2019-01-10T22:03:27.671Z,100.00
2019-01-10T22:05:56.995Z,100.00
2019-01-10T22:08:26.349Z,100.00
2019-01-10T22:10:55.761Z,100.00
2019-01-10T22:13:25.120Z,100.00
2019-01-10T22:15:54.465Z,100.00
2019-01-10T22:18:23.922Z,100.00
2019-01-10T22:20:53.275Z,100.00
2019-01-10T22:23:22.646Z,100.00
2019-01-10T22:25:52.014Z,100.00
2019-01-10T22:28:21.444Z,100.00
2019-01-10T22:30:51.083Z,100.00
2019-01-10T22:33:20.435Z,100.00
2019-01-10T22:35:49.729Z,100.00
2019-01-10T22:38:19.538Z,100.00
2019-01-10T22:40:48.893Z,100.00
2019-01-10T22:43:18.656Z,100.00
2019-01-10T22:45:48.029Z,100.00
2019-01-10T22:48:17.434Z,100.00
2019-01-10T22:50:46.795Z,100.00
2019-01-10T22:53:16.125Z,100.00
2019-01-10T22:55:45.490Z,100.00
2019-01-10T22:58:15.354Z,100.00
2019-01-10T23:01:02.902Z,100.00
2019-01-10T23:03:33.445Z,100.00
2019-01-10T23:06:02.976Z,100.00
2019-01-10T23:08:56.160Z,100.00
2019-01-10T23:11:26.242Z,100.00
2019-01-10T23:14:13.701Z,100.00
2019-01-10T23:16:43.126Z,100.00
2019-01-10T23:19:12.465Z,100.00
2019-01-10T23:21:42.491Z,100.00
2019-01-10T23:24:19.297Z,100.00
2019-01-10T23:26:55.099Z,100.00
2019-01-10T23:29:34.755Z,100.00
2019-01-10T23:32:15.759Z,100.00
2019-01-10T23:34:52.529Z,100.00
2019-01-10T23:37:23.525Z,100.00
2019-01-10T23:39:53.360Z,100.00
2019-01-10T23:42:22.843Z,100.00
2019-01-10T23:44:52.219Z,100.00
2019-01-10T23:47:21.598Z,100.00
2019-01-10T23:49:50.944Z,100.00
2019-01-10T23:52:20.299Z,100.00
2019-01-10T23:54:49.692Z,100.00
2019-01-10T23:57:19.092Z,100.00
2019-01-10T23:59:48.448Z,100.00
